createdAt,value
2023-02-06T00:00:38.296Z,3.08
2023-02-06T00:03:05.387Z,3.78
2023-02-06T00:05:32.423Z,2.85
2023-02-06T00:07:59.143Z,2.92
2023-02-06T00:10:25.874Z,2.50
2023-02-06T00:12:52.676Z,3.35
2023-02-06T00:15:19.482Z,2.70
2023-02-06T00:17:46.127Z,3.20
2023-02-06T00:20:13.242Z,3.08
2023-02-06T00:22:40.168Z,3.03
2023-02-06T00:25:07.257Z,2.33
2023-02-06T00:27:33.992Z,2.38
2023-02-06T00:30:00.757Z,3.10
2023-02-06T00:32:27.689Z,2.58
2023-02-06T00:34:56.572Z,2.92
2023-02-06T00:37:23.516Z,2.53
2023-02-06T00:39:50.288Z,2.60
2023-02-06T00:42:17.019Z,3.17
2023-02-06T00:44:45.342Z,2.30
2023-02-06T00:47:12.207Z,3.33
2023-02-06T00:49:39.152Z,3.22
2023-02-06T00:52:05.884Z,3.55
2023-02-06T00:54:32.625Z,2.97
2023-02-06T00:56:59.364Z,3.17
2023-02-06T00:59:26.168Z,4.20
2023-02-06T01:01:53.296Z,3.00
2023-02-06T01:04:20.128Z,2.60
2023-02-06T01:06:46.806Z,3.13
2023-02-06T01:09:13.909Z,2.90
2023-02-06T01:11:40.986Z,2.50
2023-02-06T01:14:07.777Z,3.42
2023-02-06T01:16:34.453Z,2.60
2023-02-06T01:19:01.425Z,3.35
2023-02-06T01:21:28.248Z,3.40
2023-02-06T01:23:58.020Z,3.50
2023-02-06T01:26:26.828Z,3.05
2023-02-06T01:28:54.344Z,3.58
2023-02-06T01:31:23.206Z,3.90
2023-02-06T01:33:50.541Z,3.40
2023-02-06T01:36:18.084Z,3.60
2023-02-06T01:38:44.989Z,4.10
2023-02-06T01:41:12.122Z,3.65
2023-02-06T01:43:40.714Z,4.03
2023-02-06T01:46:07.981Z,3.83
2023-02-06T01:48:43.061Z,4.28
2023-02-06T01:51:15.024Z,3.97
2023-02-06T01:53:43.121Z,4.13
2023-02-06T01:56:10.454Z,4.38
2023-02-06T01:58:42.603Z,3.80
2023-02-06T02:01:09.757Z,4.85
2023-02-06T02:03:38.136Z,4.47
2023-02-06T02:06:09.093Z,4.43
2023-02-06T02:08:40.767Z,4.93
2023-02-06T02:11:08.637Z,4.75
2023-02-06T02:13:38.434Z,4.50
2023-02-06T02:16:08.324Z,4.03
2023-02-06T02:18:38.186Z,4.53
2023-02-06T02:21:20.297Z,5.35
2023-02-06T02:24:06.739Z,4.10
2023-02-06T02:26:47.045Z,4.45
2023-02-06T02:29:33.251Z,4.38
2023-02-06T02:32:06.056Z,5.28
2023-02-06T02:34:32.756Z,4.85
2023-02-06T02:37:19.579Z,4.35
2023-02-06T02:39:46.396Z,4.40
2023-02-06T02:42:26.822Z,4.70
2023-02-06T02:44:59.601Z,4.78
2023-02-06T02:47:28.957Z,4.97
2023-02-06T02:49:56.374Z,4.47
2023-02-06T02:52:23.188Z,4.43
2023-02-06T02:54:49.922Z,4.28
2023-02-06T02:57:19.747Z,4.72
2023-02-06T02:59:47.948Z,5.20
2023-02-06T03:02:21.190Z,4.10
2023-02-06T03:04:57.720Z,4.40
2023-02-06T03:07:45.467Z,4.38
2023-02-06T03:10:20.996Z,5.30
2023-02-06T03:12:52.762Z,4.82
2023-02-06T03:15:26.362Z,4.78
2023-02-06T03:17:56.116Z,4.50
2023-02-06T03:20:23.622Z,4.30
2023-02-06T03:22:50.968Z,5.60
2023-02-06T03:25:20.333Z,4.40
2023-02-06T03:27:47.897Z,4.18
2023-02-06T03:30:16.174Z,4.55
2023-02-06T03:32:46.003Z,3.83
2023-02-06T03:35:21.054Z,4.38
2023-02-06T03:37:48.295Z,4.95
2023-02-06T03:40:16.532Z,4.30
2023-02-06T03:42:45.728Z,4.55
2023-02-06T03:45:15.498Z,4.65
2023-02-06T03:47:43.877Z,5.00
2023-02-06T03:50:11.948Z,5.43
2023-02-06T03:52:41.337Z,4.22
2023-02-06T03:55:12.761Z,4.57
2023-02-06T03:57:40.644Z,4.18
2023-02-06T04:00:08.038Z,4.72
2023-02-06T04:02:39.770Z,3.80
2023-02-06T04:05:06.908Z,4.60
2023-02-06T04:07:34.840Z,5.22
2023-02-06T04:10:02.052Z,5.03
2023-02-06T04:12:29.136Z,5.13
2023-02-06T04:14:57.861Z,5.22
2023-02-06T04:17:43.108Z,5.20
2023-02-06T04:20:11.858Z,5.07
2023-02-06T04:22:39.341Z,4.82
2023-02-06T04:25:06.651Z,5.28
2023-02-06T04:27:33.613Z,4.80
2023-02-06T04:30:01.490Z,5.15
2023-02-06T04:32:28.465Z,4.88
2023-02-06T04:34:55.221Z,5.05
2023-02-06T04:37:21.982Z,5.30
2023-02-06T04:39:48.795Z,5.65
2023-02-06T04:42:15.523Z,6.50
2023-02-06T04:44:42.261Z,5.45
2023-02-06T04:47:08.978Z,4.80
2023-02-06T04:49:35.747Z,6.25
2023-02-06T04:52:02.710Z,5.30
2023-02-06T04:54:32.392Z,5.68
2023-02-06T04:56:59.432Z,4.78
2023-02-06T04:59:29.447Z,5.03
2023-02-06T05:01:56.732Z,5.68
2023-02-06T05:04:23.721Z,4.18
2023-02-06T05:06:50.517Z,4.82
2023-02-06T05:09:20.041Z,4.88
2023-02-06T05:11:46.996Z,5.38
2023-02-06T05:14:13.688Z,5.43
2023-02-06T05:16:40.463Z,5.65
2023-02-06T05:19:07.318Z,5.55
2023-02-06T05:21:34.087Z,5.00
2023-02-06T05:24:00.787Z,5.45
2023-02-06T05:26:27.583Z,4.85
2023-02-06T05:28:54.450Z,5.32
2023-02-06T05:31:21.602Z,5.35
2023-02-06T05:33:52.483Z,5.65
2023-02-06T05:36:19.904Z,5.32
2023-02-06T05:38:47.333Z,5.90
2023-02-06T05:41:14.845Z,5.45
2023-02-06T05:43:41.758Z,5.00
2023-02-06T05:46:08.715Z,5.45
2023-02-06T05:48:35.591Z,5.80
2023-02-06T05:51:02.275Z,5.47
2023-02-06T05:53:29.538Z,5.05
2023-02-06T05:55:56.583Z,6.00
2023-02-06T05:58:23.896Z,6.03
2023-02-06T06:00:52.769Z,5.32
2023-02-06T06:03:20.240Z,5.85
2023-02-06T06:05:47.091Z,5.05
2023-02-06T06:08:13.920Z,5.90
2023-02-06T06:10:41.810Z,6.45
2023-02-06T06:13:08.604Z,5.78
2023-02-06T06:15:35.797Z,5.45
2023-02-06T06:18:03.019Z,5.38
2023-02-06T06:20:29.818Z,6.18
2023-02-06T06:22:56.600Z,6.82
2023-02-06T06:25:23.497Z,6.40
2023-02-06T06:27:50.202Z,7.00
2023-02-06T06:30:17.419Z,6.63
2023-02-06T06:32:44.343Z,7.18
2023-02-06T06:35:11.125Z,6.88
2023-02-06T06:37:37.902Z,7.13
2023-02-06T06:40:05.110Z,7.10
2023-02-06T06:42:31.867Z,5.82
2023-02-06T06:44:58.825Z,6.53
2023-02-06T06:47:25.655Z,6.32
2023-02-06T06:49:52.600Z,6.90
2023-02-06T06:52:24.951Z,6.88
2023-02-06T06:54:53.115Z,5.97
2023-02-06T06:57:20.970Z,6.55
2023-02-06T06:59:48.187Z,7.35
2023-02-06T07:02:15.796Z,7.40
2023-02-06T07:04:42.600Z,7.28
2023-02-06T07:07:09.523Z,6.63
2023-02-06T07:09:36.485Z,6.22
2023-02-06T07:12:03.400Z,6.47
2023-02-06T07:14:30.289Z,6.18
2023-02-06T07:16:57.259Z,7.45
2023-02-06T07:19:24.481Z,7.10
2023-02-06T07:21:51.355Z,6.43
2023-02-06T07:24:18.121Z,6.78
2023-02-06T07:26:45.283Z,6.68
2023-02-06T07:29:12.010Z,5.75
2023-02-06T07:31:39.305Z,6.57
2023-02-06T07:34:06.264Z,6.47
2023-02-06T07:36:33.087Z,6.72
2023-02-06T07:39:03.876Z,6.97
2023-02-06T07:41:30.601Z,7.72
2023-02-06T07:43:59.644Z,10.00
2023-02-06T07:46:26.510Z,11.05
2023-02-06T07:48:57.030Z,14.68
2023-02-06T07:51:31.725Z,12.45
2023-02-06T07:54:01.064Z,13.85
2023-02-06T07:56:31.020Z,12.98
2023-02-06T07:58:59.647Z,10.98
2023-02-06T08:01:32.827Z,9.50
2023-02-06T08:04:13.014Z,9.80
2023-02-06T08:06:46.091Z,8.77
2023-02-06T08:09:18.155Z,9.35
2023-02-06T08:11:50.082Z,9.85
2023-02-06T08:14:16.882Z,9.38
2023-02-06T08:16:48.174Z,9.00
2023-02-06T08:19:15.307Z,8.93
2023-02-06T08:21:56.317Z,8.57
2023-02-06T08:24:26.416Z,7.60
2023-02-06T08:27:01.684Z,8.20
2023-02-06T08:29:40.444Z,8.50
2023-02-06T08:32:11.184Z,8.43
2023-02-06T08:34:41.893Z,8.63
2023-02-06T08:37:14.598Z,9.43
2023-02-06T08:39:41.533Z,8.82
2023-02-06T08:42:08.750Z,8.45
2023-02-06T08:44:37.142Z,7.68
2023-02-06T08:47:10.467Z,8.45
2023-02-06T08:49:38.454Z,6.88
2023-02-06T08:52:14.603Z,6.18
2023-02-06T08:54:45.789Z,6.75
2023-02-06T08:57:19.428Z,6.28
2023-02-06T08:59:51.030Z,7.53
2023-02-06T09:02:24.379Z,6.90
2023-02-06T09:04:59.668Z,6.50
2023-02-06T09:07:29.903Z,6.75
2023-02-06T09:09:57.126Z,7.20
2023-02-06T09:12:27.331Z,11.32
2023-02-06T09:15:06.906Z,8.10
2023-02-06T09:17:37.731Z,6.80
2023-02-06T09:20:05.552Z,7.28
2023-02-06T09:22:35.908Z,6.10
2023-02-06T09:25:05.375Z,6.13
2023-02-06T09:27:32.513Z,6.05
2023-02-06T09:29:59.315Z,6.07
2023-02-06T09:32:26.134Z,5.30
2023-02-06T09:34:52.880Z,5.15
2023-02-06T09:37:20.176Z,6.93
2023-02-06T09:39:47.290Z,5.88
2023-02-06T09:42:23.909Z,5.25
2023-02-06T09:44:56.087Z,5.40
2023-02-06T09:47:31.719Z,5.15
2023-02-06T09:50:02.678Z,4.90
2023-02-06T09:52:29.770Z,4.97
2023-02-06T09:55:15.463Z,6.20
2023-02-06T09:58:01.482Z,5.05
2023-02-06T10:00:28.645Z,5.32
2023-02-06T10:03:07.878Z,4.80
2023-02-06T10:05:41.845Z,5.18
2023-02-06T10:08:14.300Z,5.30
2023-02-06T10:10:50.794Z,5.28
2023-02-06T10:13:33.080Z,6.07
2023-02-06T10:16:11.869Z,5.25
2023-02-06T10:18:48.014Z,5.05
2023-02-06T10:21:21.086Z,5.55
2023-02-06T10:23:54.706Z,5.78
2023-02-06T10:26:25.698Z,5.82
2023-02-06T10:28:56.040Z,6.40
2023-02-06T10:31:29.638Z,5.55
2023-02-06T10:34:21.157Z,6.20
2023-02-06T10:36:48.907Z,7.00
2023-02-06T10:39:15.740Z,5.80
2023-02-06T10:41:44.894Z,5.75
2023-02-06T10:44:25.167Z,5.68
2023-02-06T10:46:53.364Z,5.50
2023-02-06T10:49:27.854Z,7.00
2023-02-06T10:52:00.924Z,5.68
2023-02-06T10:54:39.850Z,5.05
2023-02-06T10:57:28.588Z,5.35
2023-02-06T11:00:00.949Z,5.10
2023-02-06T11:02:31.966Z,5.10
2023-02-06T11:05:06.989Z,5.50
2023-02-06T11:07:56.369Z,5.80
2023-02-06T11:10:25.829Z,5.32
2023-02-06T11:13:00.290Z,5.78
2023-02-06T11:15:39.444Z,5.40
2023-02-06T11:18:08.275Z,5.15
2023-02-06T11:20:36.845Z,6.20
2023-02-06T11:23:17.942Z,6.10
2023-02-06T11:25:51.930Z,4.57
2023-02-06T11:28:20.572Z,4.85
2023-02-06T11:30:56.144Z,6.05
2023-02-06T11:33:26.652Z,5.15
2023-02-06T11:35:59.599Z,4.68
2023-02-06T11:38:28.173Z,4.13
2023-02-06T11:40:55.392Z,4.10
2023-02-06T11:43:31.478Z,3.70
2023-02-06T11:46:18.989Z,3.53
2023-02-06T11:49:02.005Z,3.80
2023-02-06T11:52:04.492Z,3.22
2023-02-06T11:54:35.273Z,2.97
2023-02-06T11:57:19.238Z,3.00
2023-02-06T11:59:59.913Z,3.35
2023-02-06T12:02:33.871Z,3.88
2023-02-06T12:05:03.769Z,4.97
2023-02-06T12:07:41.031Z,3.70
2023-02-06T12:10:24.998Z,4.28
2023-02-06T12:12:53.758Z,3.75
2023-02-06T12:15:46.892Z,4.18
2023-02-06T12:18:20.126Z,5.30
2023-02-06T12:20:54.069Z,3.90
2023-02-06T12:23:24.088Z,4.25
2023-02-06T12:25:55.905Z,5.43
2023-02-06T12:28:41.677Z,5.03
2023-02-06T12:31:32.251Z,4.50
2023-02-06T12:34:06.385Z,4.65
2023-02-06T12:39:03.741Z,4.15
2023-02-06T12:41:49.484Z,4.53
2023-02-06T12:44:20.174Z,4.55
2023-02-06T12:46:49.994Z,3.65
2023-02-06T12:49:20.652Z,4.72
2023-02-06T12:52:04.988Z,4.15
2023-02-06T12:54:32.390Z,4.40
2023-02-06T12:57:05.016Z,4.55
2023-02-06T12:59:57.606Z,4.32
2023-02-06T13:02:41.501Z,4.53
2023-02-06T13:05:22.557Z,4.50
2023-02-06T13:07:50.270Z,4.47
2023-02-06T13:10:25.765Z,4.07
2023-02-06T13:12:56.753Z,4.90
2023-02-06T13:15:28.141Z,3.75
2023-02-06T13:17:58.418Z,5.00
2023-02-06T13:20:25.670Z,3.80
2023-02-06T13:22:54.221Z,3.70
2023-02-06T13:25:33.354Z,3.70
2023-02-06T13:28:01.800Z,3.67
2023-02-06T13:30:29.022Z,3.97
2023-02-06T13:33:08.899Z,3.55
2023-02-06T13:35:53.588Z,4.40
2023-02-06T13:38:22.710Z,3.90
2023-02-06T13:41:14.338Z,4.28
2023-02-06T13:43:59.996Z,3.72
2023-02-06T13:46:39.109Z,4.47
2023-02-06T13:49:15.691Z,4.72
2023-02-06T13:51:45.641Z,4.85
2023-02-06T13:54:15.431Z,4.35
2023-02-06T13:56:45.411Z,4.10
2023-02-06T13:59:17.557Z,4.53
2023-02-06T14:01:46.264Z,4.47
2023-02-06T14:04:18.502Z,5.50
2023-02-06T14:06:56.767Z,4.80
2023-02-06T14:09:51.031Z,5.25
2023-02-06T14:12:36.766Z,5.18
2023-02-06T14:15:08.222Z,5.40
2023-02-06T14:17:37.768Z,5.45
2023-02-06T14:20:23.674Z,6.82
2023-02-06T14:22:59.832Z,4.80
2023-02-06T14:25:45.106Z,5.57
2023-02-06T14:28:24.276Z,5.32
2023-02-06T14:30:57.036Z,6.00
2023-02-06T14:33:46.139Z,6.03
2023-02-06T14:36:23.966Z,5.07
2023-02-06T14:39:03.665Z,4.38
2023-02-06T14:41:31.774Z,4.60
2023-02-06T14:43:59.755Z,4.47
2023-02-06T14:46:31.529Z,4.80
2023-02-06T14:49:00.958Z,4.60
2023-02-06T14:51:29.588Z,4.20
2023-02-06T14:54:01.479Z,4.25
2023-02-06T14:56:32.414Z,3.92
2023-02-06T14:59:28.016Z,5.90
2023-02-06T15:01:57.248Z,5.30
2023-02-06T15:04:28.745Z,4.63
2023-02-06T15:06:57.869Z,5.03
2023-02-06T15:09:32.677Z,4.77
2023-02-06T15:12:19.542Z,5.25
2023-02-06T15:14:55.849Z,5.15
2023-02-06T15:17:31.896Z,5.53
2023-02-06T15:20:19.393Z,5.20
2023-02-06T15:22:48.308Z,4.70
2023-02-06T15:25:32.970Z,5.80
2023-02-06T15:28:10.320Z,5.03
2023-02-06T15:30:42.089Z,4.70
2023-02-06T15:33:14.238Z,5.00
2023-02-06T15:35:48.613Z,5.35
2023-02-06T15:38:26.014Z,4.80
2023-02-06T15:40:55.262Z,4.90
2023-02-06T15:43:27.317Z,5.20
2023-02-06T15:46:01.465Z,4.90
2023-02-06T15:48:34.923Z,4.88
2023-02-06T15:51:22.851Z,4.68
2023-02-06T15:53:54.406Z,5.55
2023-02-06T15:56:31.838Z,4.18
2023-02-06T15:59:01.753Z,5.22
2023-02-06T16:01:31.225Z,5.57
2023-02-06T16:04:23.744Z,5.55
2023-02-06T16:07:05.259Z,4.30
2023-02-06T16:09:41.309Z,4.97
2023-02-06T16:12:17.048Z,4.57
2023-02-06T16:15:00.549Z,4.80
2023-02-06T16:17:36.993Z,4.50
2023-02-06T16:20:26.887Z,5.07
2023-02-06T16:22:57.302Z,5.28
2023-02-06T16:25:29.530Z,5.57
2023-02-06T16:28:02.438Z,4.90
2023-02-06T16:30:31.236Z,5.85
2023-02-06T16:33:02.158Z,5.43
2023-02-06T16:35:31.041Z,5.47
2023-02-06T16:37:57.693Z,5.75
2023-02-06T16:40:27.271Z,6.22
2023-02-06T16:42:54.312Z,7.40
2023-02-06T16:45:27.756Z,6.45
2023-02-06T16:47:57.041Z,5.90
2023-02-06T16:50:27.537Z,5.70
2023-02-06T16:52:58.896Z,6.40
2023-02-06T16:55:26.512Z,6.75
2023-02-06T16:57:59.336Z,7.10
2023-02-06T17:00:35.002Z,7.47
2023-02-06T17:03:11.439Z,7.32
2023-02-06T17:05:46.710Z,7.45
2023-02-06T17:08:21.351Z,7.75
2023-02-06T17:10:48.659Z,6.90
2023-02-06T17:13:24.227Z,7.50
2023-02-06T17:15:57.135Z,6.90
2023-02-06T17:18:23.907Z,7.50
2023-02-06T17:21:00.607Z,7.50
2023-02-06T17:23:30.007Z,7.90
2023-02-06T17:25:59.193Z,7.40
2023-02-06T17:28:26.075Z,6.93
2023-02-06T17:31:01.511Z,8.60
2023-02-06T17:33:32.042Z,8.63
2023-02-06T17:36:02.042Z,7.95
2023-02-06T17:38:34.315Z,8.70
2023-02-06T17:41:01.097Z,8.20
2023-02-06T17:43:36.245Z,8.73
2023-02-06T17:46:16.008Z,8.57
2023-02-06T17:48:44.520Z,9.43
2023-02-06T17:51:19.568Z,9.57
2023-02-06T17:53:49.668Z,9.05
2023-02-06T17:56:27.252Z,8.30
2023-02-06T17:58:59.424Z,7.90
2023-02-06T18:01:30.953Z,8.65
2023-02-06T18:04:03.308Z,9.63
2023-02-06T18:06:36.453Z,8.50
2023-02-06T18:09:04.064Z,8.07
2023-02-06T18:11:31.566Z,9.05
2023-02-06T18:13:58.286Z,10.68
2023-02-06T18:16:27.126Z,9.68
2023-02-06T18:18:58.098Z,8.27
2023-02-06T18:21:28.535Z,8.63
2023-02-06T18:24:00.533Z,9.13
2023-02-06T18:26:27.811Z,9.55
2023-02-06T18:28:54.780Z,10.23
2023-02-06T18:31:32.715Z,10.25
2023-02-06T18:34:02.252Z,9.63
2023-02-06T18:36:31.774Z,11.10
2023-02-06T18:39:01.060Z,9.90
2023-02-06T18:41:48.821Z,10.10
2023-02-06T18:44:20.972Z,9.90
2023-02-06T18:46:50.658Z,10.82
2023-02-06T18:49:21.110Z,9.85
2023-02-06T18:51:47.819Z,9.93
2023-02-06T18:54:14.759Z,9.90
2023-02-06T18:56:42.846Z,10.05
2023-02-06T18:59:10.065Z,9.52
2023-02-06T19:01:40.125Z,9.65
2023-02-06T19:04:07.126Z,10.07
2023-02-06T19:06:36.560Z,11.70
2023-02-06T19:09:10.778Z,8.77
2023-02-06T19:11:37.930Z,10.32
2023-02-06T19:14:12.704Z,9.27
2023-02-06T19:16:40.790Z,11.20
2023-02-06T19:19:12.983Z,10.32
2023-02-06T19:21:43.932Z,10.00
2023-02-06T19:24:14.976Z,9.32
2023-02-06T19:26:47.230Z,10.70
2023-02-06T19:29:16.703Z,9.75
2023-02-06T19:31:46.660Z,9.13
2023-02-06T19:34:13.559Z,9.23
2023-02-06T19:36:40.341Z,9.90
2023-02-06T19:39:09.380Z,9.55
2023-02-06T19:41:36.142Z,8.98
2023-02-06T19:44:05.505Z,9.35
2023-02-06T19:46:32.785Z,9.43
2023-02-06T19:48:59.790Z,9.77
2023-02-06T19:51:29.536Z,8.88
2023-02-06T19:53:57.275Z,10.02
2023-02-06T19:56:31.022Z,9.18
2023-02-06T19:58:58.849Z,10.05
2023-02-06T20:01:26.820Z,10.90
2023-02-06T20:03:53.819Z,9.55
2023-02-06T20:06:21.309Z,9.75
2023-02-06T20:08:48.276Z,9.82
2023-02-06T20:11:16.296Z,9.80
2023-02-06T20:13:43.784Z,9.60
2023-02-06T20:16:16.947Z,11.25
2023-02-06T20:18:44.086Z,9.95
2023-02-06T20:21:20.642Z,11.00
2023-02-06T20:23:49.673Z,11.20
2023-02-06T20:26:17.879Z,10.63
2023-02-06T20:28:44.607Z,12.18
2023-02-06T20:31:11.948Z,11.52
2023-02-06T20:33:38.897Z,11.18
2023-02-06T20:36:06.575Z,12.57
2023-02-06T20:38:33.326Z,11.23
2023-02-06T20:41:04.242Z,12.40
2023-02-06T20:43:32.514Z,12.98
2023-02-06T20:45:59.360Z,12.00
2023-02-06T20:48:26.151Z,10.43
2023-02-06T20:51:00.754Z,12.32
2023-02-06T20:53:27.487Z,13.25
2023-02-06T20:55:54.589Z,11.95
2023-02-06T20:58:21.864Z,13.35
2023-02-06T21:00:50.285Z,10.73
2023-02-06T21:03:17.465Z,12.77
2023-02-06T21:05:44.581Z,12.90
2023-02-06T21:08:11.593Z,11.90
2023-02-06T21:10:38.439Z,12.80
2023-02-06T21:13:05.376Z,12.73
2023-02-06T21:15:33.356Z,12.65
2023-02-06T21:18:00.105Z,12.70
2023-02-06T21:20:26.901Z,13.88
2023-02-06T21:22:56.132Z,11.82
2023-02-06T21:25:22.965Z,13.70
2023-02-06T21:27:49.780Z,10.85
2023-02-06T21:30:16.980Z,14.13
2023-02-06T21:32:43.883Z,12.02
2023-02-06T21:35:10.736Z,12.98
2023-02-06T21:37:37.593Z,13.02
2023-02-06T21:40:05.361Z,13.82
2023-02-06T21:42:32.450Z,13.13
2023-02-06T21:44:59.185Z,13.80
2023-02-06T21:47:25.898Z,14.63
2023-02-06T21:49:52.639Z,13.73
2023-02-06T21:52:19.387Z,15.07
2023-02-06T21:54:46.049Z,14.40
2023-02-06T21:57:12.763Z,13.07
2023-02-06T21:59:40.955Z,14.05
2023-02-06T22:02:09.410Z,13.30
2023-02-06T22:04:36.110Z,14.57
2023-02-06T22:07:02.789Z,14.05
2023-02-06T22:09:29.554Z,13.00
2023-02-06T22:11:56.762Z,12.70
2023-02-06T22:14:23.766Z,13.80
2023-02-06T22:16:50.593Z,14.85
2023-02-06T22:19:18.034Z,13.43
2023-02-06T22:21:44.774Z,14.73
2023-02-06T22:24:12.020Z,14.52
2023-02-06T22:26:39.397Z,14.52
2023-02-06T22:29:07.750Z,15.52
2023-02-06T22:31:35.330Z,15.38
2023-02-06T22:34:02.862Z,17.50
2023-02-06T22:36:31.435Z,20.10
2023-02-06T22:38:59.768Z,15.35
2023-02-06T22:41:26.910Z,16.25
2023-02-06T22:43:53.742Z,16.15
2023-02-06T22:46:27.463Z,14.63
2023-02-06T22:48:54.513Z,15.00
2023-02-06T22:51:21.586Z,13.43
2023-02-06T22:53:48.742Z,15.07
2023-02-06T22:56:31.920Z,13.20
2023-02-06T22:59:03.972Z,12.95
2023-02-06T23:01:33.270Z,12.13
2023-02-06T23:04:00.942Z,12.93
2023-02-06T23:06:28.602Z,11.52
2023-02-06T23:08:56.801Z,12.23
2023-02-06T23:11:24.507Z,11.65
2023-02-06T23:13:52.640Z,11.55
2023-02-06T23:16:19.522Z,15.00
2023-02-06T23:18:46.484Z,13.35
2023-02-06T23:21:13.960Z,15.55
2023-02-06T23:23:41.387Z,16.80
2023-02-06T23:26:10.306Z,13.63
2023-02-06T23:28:37.266Z,15.68
2023-02-06T23:31:05.754Z,15.55
2023-02-06T23:33:33.520Z,15.67
2023-02-06T23:36:07.969Z,15.85
2023-02-06T23:38:34.912Z,11.90
2023-02-06T23:41:08.705Z,10.23
2023-02-06T23:43:36.280Z,9.38
2023-02-06T23:46:03.567Z,8.82
2023-02-06T23:48:31.194Z,8.10
2023-02-06T23:51:03.964Z,9.18
2023-02-06T23:53:30.683Z,10.05
2023-02-06T23:55:57.445Z,10.10
2023-02-06T23:58:24.240Z,9.30
